sensor_id;sensor_type;location;lat;lon;timestamp;P1;durP1;ratioP1;P2;durP2;ratioP2
51995;SDS011;38010;53.264;6.592;2023-07-09T00:00:11;0.17;;;0.17;;
51995;SDS011;38010;53.264;6.592;2023-07-09T00:02:41;0.15;;;0.15;;
51995;SDS011;38010;53.264;6.592;2023-07-09T00:05:11;0.20;;;0.20;;
51995;SDS011;38010;53.264;6.592;2023-07-09T00:07:40;0.20;;;0.20;;
51995;SDS011;38010;53.264;6.592;2023-07-09T00:10:15;0.20;;;0.20;;
51995;SDS011;38010;53.264;6.592;2023-07-09T00:12:46;0.20;;;0.20;;
51995;SDS011;38010;53.264;6.592;2023-07-09T00:15:14;0.10;;;0.10;;
51995;SDS011;38010;53.264;6.592;2023-07-09T00:17:41;0.20;;;0.20;;
51995;SDS011;38010;53.264;6.592;2023-07-09T00:20:10;0.20;;;0.20;;
51995;SDS011;38010;53.264;6.592;2023-07-09T00:22:41;0.20;;;0.20;;
51995;SDS011;38010;53.264;6.592;2023-07-09T00:25:13;0.10;;;0.10;;
51995;SDS011;38010;53.264;6.592;2023-07-09T00:27:42;0.20;;;0.20;;
51995;SDS011;38010;53.264;6.592;2023-07-09T00:30:18;0.20;;;0.20;;
51995;SDS011;38010;53.264;6.592;2023-07-09T00:32:50;0.10;;;0.10;;
51995;SDS011;38010;53.264;6.592;2023-07-09T00:35:18;0.10;;;0.10;;
51995;SDS011;38010;53.264;6.592;2023-07-09T00:37:44;0.20;;;0.20;;
51995;SDS011;38010;53.264;6.592;2023-07-09T00:40:21;0.20;;;0.20;;
51995;SDS011;38010;53.264;6.592;2023-07-09T00:42:49;0.20;;;0.20;;
51995;SDS011;38010;53.264;6.592;2023-07-09T00:45:19;0.20;;;0.20;;
51995;SDS011;38010;53.264;6.592;2023-07-09T00:56:06;0.20;;;0.20;;
51995;SDS011;38010;53.264;6.592;2023-07-09T00:58:37;0.20;;;0.20;;
51995;SDS011;38010;53.264;6.592;2023-07-09T01:01:05;0.10;;;0.10;;
51995;SDS011;38010;53.264;6.592;2023-07-09T01:06:08;0.10;;;0.10;;
51995;SDS011;38010;53.264;6.592;2023-07-09T01:08:35;0.20;;;0.20;;
51995;SDS011;38010;53.264;6.592;2023-07-09T01:11:14;0.20;;;0.20;;
51995;SDS011;38010;53.264;6.592;2023-07-09T01:13:51;0.13;;;0.13;;
51995;SDS011;38010;53.264;6.592;2023-07-09T01:16:21;0.20;;;0.20;;
51995;SDS011;38010;53.264;6.592;2023-07-09T01:18:53;0.20;;;0.20;;
51995;SDS011;38010;53.264;6.592;2023-07-09T01:21:20;0.20;;;0.20;;
51995;SDS011;38010;53.264;6.592;2023-07-09T01:23:47;0.20;;;0.20;;
51995;SDS011;38010;53.264;6.592;2023-07-09T01:26:16;0.20;;;0.20;;
51995;SDS011;38010;53.264;6.592;2023-07-09T01:28:44;0.13;;;0.13;;
51995;SDS011;38010;53.264;6.592;2023-07-09T01:31:14;0.10;;;0.10;;
51995;SDS011;38010;53.264;6.592;2023-07-09T01:33:41;0.10;;;0.10;;
51995;SDS011;38010;53.264;6.592;2023-07-09T01:36:10;0.20;;;0.20;;
51995;SDS011;38010;53.264;6.592;2023-07-09T01:38:40;0.10;;;0.10;;
51995;SDS011;38010;53.264;6.592;2023-07-09T01:41:07;0.20;;;0.20;;
51995;SDS011;38010;53.264;6.592;2023-07-09T01:43:33;0.20;;;0.20;;
51995;SDS011;38010;53.264;6.592;2023-07-09T01:46:00;0.20;;;0.20;;
51995;SDS011;38010;53.264;6.592;2023-07-09T01:48:26;0.20;;;0.20;;
51995;SDS011;38010;53.264;6.592;2023-07-09T01:50:53;0.22;;;0.20;;
51995;SDS011;38010;53.264;6.592;2023-07-09T01:53:20;0.20;;;0.20;;
51995;SDS011;38010;53.264;6.592;2023-07-09T01:55:51;0.20;;;0.20;;
51995;SDS011;38010;53.264;6.592;2023-07-09T01:58:19;0.20;;;0.20;;
51995;SDS011;38010;53.264;6.592;2023-07-09T02:00:50;0.13;;;0.13;;
51995;SDS011;38010;53.264;6.592;2023-07-09T02:03:16;0.20;;;0.20;;
51995;SDS011;38010;53.264;6.592;2023-07-09T02:05:43;0.20;;;0.20;;
51995;SDS011;38010;53.264;6.592;2023-07-09T02:08:09;0.10;;;0.10;;
51995;SDS011;38010;53.264;6.592;2023-07-09T02:10:35;0.20;;;0.20;;
51995;SDS011;38010;53.264;6.592;2023-07-09T02:13:00;0.20;;;0.20;;
51995;SDS011;38010;53.264;6.592;2023-07-09T02:15:27;0.20;;;0.20;;
51995;SDS011;38010;53.264;6.592;2023-07-09T02:17:55;0.20;;;0.20;;
51995;SDS011;38010;53.264;6.592;2023-07-09T02:20:24;0.20;;;0.20;;
51995;SDS011;38010;53.264;6.592;2023-07-09T02:22:51;0.10;;;0.10;;
51995;SDS011;38010;53.264;6.592;2023-07-09T02:25:18;0.20;;;0.20;;
51995;SDS011;38010;53.264;6.592;2023-07-09T02:27:45;0.20;;;0.20;;
51995;SDS011;38010;53.264;6.592;2023-07-09T02:30:11;0.20;;;0.20;;
51995;SDS011;38010;53.264;6.592;2023-07-09T02:32:37;0.10;;;0.10;;
51995;SDS011;38010;53.264;6.592;2023-07-09T02:35:03;0.20;;;0.20;;
51995;SDS011;38010;53.264;6.592;2023-07-09T02:37:30;0.32;;;0.20;;
51995;SDS011;38010;53.264;6.592;2023-07-09T02:39:56;0.20;;;0.20;;
51995;SDS011;38010;53.264;6.592;2023-07-09T02:42:22;0.20;;;0.20;;
51995;SDS011;38010;53.264;6.592;2023-07-09T02:44:48;0.20;;;0.20;;
51995;SDS011;38010;53.264;6.592;2023-07-09T02:47:15;0.20;;;0.20;;
51995;SDS011;38010;53.264;6.592;2023-07-09T02:49:41;0.20;;;0.20;;
51995;SDS011;38010;53.264;6.592;2023-07-09T02:52:08;0.10;;;0.10;;
51995;SDS011;38010;53.264;6.592;2023-07-09T02:54:34;0.20;;;0.20;;
51995;SDS011;38010;53.264;6.592;2023-07-09T02:57:00;0.20;;;0.20;;
51995;SDS011;38010;53.264;6.592;2023-07-09T02:59:26;0.10;;;0.10;;
51995;SDS011;38010;53.264;6.592;2023-07-09T03:01:54;0.20;;;0.20;;
51995;SDS011;38010;53.264;6.592;2023-07-09T03:04:20;0.20;;;0.20;;
51995;SDS011;38010;53.264;6.592;2023-07-09T03:06:46;0.20;;;0.20;;
51995;SDS011;38010;53.264;6.592;2023-07-09T03:09:12;0.20;;;0.20;;
51995;SDS011;38010;53.264;6.592;2023-07-09T03:11:38;0.15;;;0.15;;
51995;SDS011;38010;53.264;6.592;2023-07-09T03:14:04;0.20;;;0.20;;
51995;SDS011;38010;53.264;6.592;2023-07-09T03:16:31;0.10;;;0.10;;
51995;SDS011;38010;53.264;6.592;2023-07-09T03:18:58;0.20;;;0.20;;
51995;SDS011;38010;53.264;6.592;2023-07-09T03:21:26;0.20;;;0.20;;
51995;SDS011;38010;53.264;6.592;2023-07-09T03:23:53;0.20;;;0.20;;
51995;SDS011;38010;53.264;6.592;2023-07-09T03:26:20;0.20;;;0.20;;
51995;SDS011;38010;53.264;6.592;2023-07-09T03:28:47;0.10;;;0.10;;
51995;SDS011;38010;53.264;6.592;2023-07-09T03:31:14;0.15;;;0.15;;
51995;SDS011;38010;53.264;6.592;2023-07-09T03:33:40;0.20;;;0.20;;
51995;SDS011;38010;53.264;6.592;2023-07-09T03:36:06;0.20;;;0.20;;
51995;SDS011;38010;53.264;6.592;2023-07-09T03:38:32;0.20;;;0.20;;
51995;SDS011;38010;53.264;6.592;2023-07-09T03:40:59;0.17;;;0.17;;
51995;SDS011;38010;53.264;6.592;2023-07-09T03:43:25;0.20;;;0.20;;
51995;SDS011;38010;53.264;6.592;2023-07-09T03:45:51;0.20;;;0.20;;
51995;SDS011;38010;53.264;6.592;2023-07-09T03:48:18;0.20;;;0.20;;
51995;SDS011;38010;53.264;6.592;2023-07-09T03:50:46;0.20;;;0.20;;
51995;SDS011;38010;53.264;6.592;2023-07-09T03:53:14;0.20;;;0.20;;
51995;SDS011;38010;53.264;6.592;2023-07-09T03:55:40;0.20;;;0.20;;
51995;SDS011;38010;53.264;6.592;2023-07-09T03:58:06;0.10;;;0.10;;
51995;SDS011;38010;53.264;6.592;2023-07-09T04:00:33;0.10;;;0.10;;
51995;SDS011;38010;53.264;6.592;2023-07-09T04:02:59;0.20;;;0.20;;
51995;SDS011;38010;53.264;6.592;2023-07-09T04:05:26;0.20;;;0.20;;
51995;SDS011;38010;53.264;6.592;2023-07-09T04:07:53;0.20;;;0.20;;
51995;SDS011;38010;53.264;6.592;2023-07-09T04:10:19;0.20;;;0.20;;
51995;SDS011;38010;53.264;6.592;2023-07-09T04:12:45;0.20;;;0.20;;
51995;SDS011;38010;53.264;6.592;2023-07-09T04:15:11;0.10;;;0.10;;
51995;SDS011;38010;53.264;6.592;2023-07-09T04:17:39;0.20;;;0.20;;
51995;SDS011;38010;53.264;6.592;2023-07-09T04:20:05;0.20;;;0.20;;
51995;SDS011;38010;53.264;6.592;2023-07-09T04:22:32;0.20;;;0.20;;
51995;SDS011;38010;53.264;6.592;2023-07-09T04:25:00;0.10;;;0.10;;
51995;SDS011;38010;53.264;6.592;2023-07-09T04:27:28;0.20;;;0.20;;
51995;SDS011;38010;53.264;6.592;2023-07-09T04:29:54;0.10;;;0.10;;
51995;SDS011;38010;53.264;6.592;2023-07-09T04:32:20;0.20;;;0.20;;
51995;SDS011;38010;53.264;6.592;2023-07-09T04:34:46;0.20;;;0.20;;
51995;SDS011;38010;53.264;6.592;2023-07-09T04:37:12;0.20;;;0.20;;
51995;SDS011;38010;53.264;6.592;2023-07-09T04:39:42;0.15;;;0.15;;
51995;SDS011;38010;53.264;6.592;2023-07-09T04:42:14;0.13;;;0.13;;
51995;SDS011;38010;53.264;6.592;2023-07-09T04:47:07;0.20;;;0.20;;
51995;SDS011;38010;53.264;6.592;2023-07-09T04:49:34;0.20;;;0.20;;
51995;SDS011;38010;53.264;6.592;2023-07-09T04:52:00;0.20;;;0.20;;
51995;SDS011;38010;53.264;6.592;2023-07-09T04:54:26;0.20;;;0.20;;
51995;SDS011;38010;53.264;6.592;2023-07-09T04:56:52;0.10;;;0.10;;
51995;SDS011;38010;53.264;6.592;2023-07-09T04:59:18;0.20;;;0.20;;
51995;SDS011;38010;53.264;6.592;2023-07-09T05:01:46;0.20;;;0.20;;
51995;SDS011;38010;53.264;6.592;2023-07-09T05:04:12;0.20;;;0.20;;
51995;SDS011;38010;53.264;6.592;2023-07-09T05:06:38;0.20;;;0.20;;
51995;SDS011;38010;53.264;6.592;2023-07-09T05:09:04;0.10;;;0.10;;
51995;SDS011;38010;53.264;6.592;2023-07-09T05:11:33;0.20;;;0.20;;
51995;SDS011;38010;53.264;6.592;2023-07-09T05:14:00;0.20;;;0.20;;
51995;SDS011;38010;53.264;6.592;2023-07-09T05:16:26;0.10;;;0.10;;
51995;SDS011;38010;53.264;6.592;2023-07-09T05:18:52;0.20;;;0.20;;
51995;SDS011;38010;53.264;6.592;2023-07-09T05:21:19;0.20;;;0.20;;
51995;SDS011;38010;53.264;6.592;2023-07-09T05:23:45;0.20;;;0.20;;
51995;SDS011;38010;53.264;6.592;2023-07-09T05:26:11;0.20;;;0.20;;
51995;SDS011;38010;53.264;6.592;2023-07-09T05:28:37;0.20;;;0.20;;
51995;SDS011;38010;53.264;6.592;2023-07-09T05:31:06;0.20;;;0.20;;
51995;SDS011;38010;53.264;6.592;2023-07-09T05:33:33;0.10;;;0.10;;
51995;SDS011;38010;53.264;6.592;2023-07-09T05:35:59;0.10;;;0.10;;
51995;SDS011;38010;53.264;6.592;2023-07-09T05:38:25;0.20;;;0.20;;
51995;SDS011;38010;53.264;6.592;2023-07-09T05:41:01;0.20;;;0.20;;
51995;SDS011;38010;53.264;6.592;2023-07-09T05:43:29;0.20;;;0.20;;
51995;SDS011;38010;53.264;6.592;2023-07-09T05:45:56;0.20;;;0.20;;
51995;SDS011;38010;53.264;6.592;2023-07-09T05:48:22;0.20;;;0.20;;
51995;SDS011;38010;53.264;6.592;2023-07-09T05:50:51;0.20;;;0.20;;
51995;SDS011;38010;53.264;6.592;2023-07-09T05:53:18;0.20;;;0.20;;
51995;SDS011;38010;53.264;6.592;2023-07-09T05:55:44;0.20;;;0.20;;
51995;SDS011;38010;53.264;6.592;2023-07-09T05:58:11;0.10;;;0.10;;
51995;SDS011;38010;53.264;6.592;2023-07-09T06:00:37;0.20;;;0.20;;
51995;SDS011;38010;53.264;6.592;2023-07-09T06:03:04;0.10;;;0.10;;
51995;SDS011;38010;53.264;6.592;2023-07-09T06:05:32;0.10;;;0.10;;
51995;SDS011;38010;53.264;6.592;2023-07-09T06:07:59;0.20;;;0.20;;
51995;SDS011;38010;53.264;6.592;2023-07-09T06:10:25;0.10;;;0.10;;
51995;SDS011;38010;53.264;6.592;2023-07-09T06:12:51;0.20;;;0.20;;
51995;SDS011;38010;53.264;6.592;2023-07-09T06:15:18;0.20;;;0.20;;
51995;SDS011;38010;53.264;6.592;2023-07-09T06:17:44;0.20;;;0.20;;
51995;SDS011;38010;53.264;6.592;2023-07-09T06:20:10;0.20;;;0.20;;
51995;SDS011;38010;53.264;6.592;2023-07-09T06:22:36;0.17;;;0.17;;
51995;SDS011;38010;53.264;6.592;2023-07-09T06:25:02;0.20;;;0.20;;
51995;SDS011;38010;53.264;6.592;2023-07-09T06:27:28;0.20;;;0.20;;
51995;SDS011;38010;53.264;6.592;2023-07-09T06:29:53;0.20;;;0.20;;
51995;SDS011;38010;53.264;6.592;2023-07-09T06:32:19;0.20;;;0.20;;
51995;SDS011;38010;53.264;6.592;2023-07-09T06:34:50;0.20;;;0.20;;
51995;SDS011;38010;53.264;6.592;2023-07-09T06:37:17;0.15;;;0.15;;
51995;SDS011;38010;53.264;6.592;2023-07-09T06:39:43;0.20;;;0.20;;
51995;SDS011;38010;53.264;6.592;2023-07-09T06:42:09;0.20;;;0.20;;
51995;SDS011;38010;53.264;6.592;2023-07-09T06:44:35;0.13;;;0.13;;
51995;SDS011;38010;53.264;6.592;2023-07-09T06:47:01;0.10;;;0.10;;
51995;SDS011;38010;53.264;6.592;2023-07-09T06:49:27;0.20;;;0.20;;
51995;SDS011;38010;53.264;6.592;2023-07-09T06:51:53;0.38;;;0.10;;
51995;SDS011;38010;53.264;6.592;2023-07-09T06:54:19;0.20;;;0.20;;
51995;SDS011;38010;53.264;6.592;2023-07-09T06:56:45;0.17;;;0.17;;
51995;SDS011;38010;53.264;6.592;2023-07-09T06:59:12;0.20;;;0.20;;
51995;SDS011;38010;53.264;6.592;2023-07-09T07:01:38;0.20;;;0.20;;
51995;SDS011;38010;53.264;6.592;2023-07-09T07:04:04;0.20;;;0.20;;
51995;SDS011;38010;53.264;6.592;2023-07-09T07:06:30;0.20;;;0.20;;
51995;SDS011;38010;53.264;6.592;2023-07-09T07:08:56;0.20;;;0.20;;
51995;SDS011;38010;53.264;6.592;2023-07-09T07:11:22;0.20;;;0.20;;
51995;SDS011;38010;53.264;6.592;2023-07-09T07:13:48;0.20;;;0.20;;
51995;SDS011;38010;53.264;6.592;2023-07-09T07:16:16;0.20;;;0.20;;
51995;SDS011;38010;53.264;6.592;2023-07-09T07:18:43;0.20;;;0.20;;
51995;SDS011;38010;53.264;6.592;2023-07-09T07:21:09;0.20;;;0.20;;
51995;SDS011;38010;53.264;6.592;2023-07-09T07:23:35;0.20;;;0.20;;
51995;SDS011;38010;53.264;6.592;2023-07-09T07:26:01;0.20;;;0.20;;
51995;SDS011;38010;53.264;6.592;2023-07-09T07:28:29;0.20;;;0.20;;
51995;SDS011;38010;53.264;6.592;2023-07-09T07:31:02;0.20;;;0.20;;
51995;SDS011;38010;53.264;6.592;2023-07-09T07:33:30;0.30;;;0.30;;
51995;SDS011;38010;53.264;6.592;2023-07-09T07:35:56;0.20;;;0.20;;
51995;SDS011;38010;53.264;6.592;2023-07-09T07:38:22;0.20;;;0.20;;
51995;SDS011;38010;53.264;6.592;2023-07-09T07:40:48;0.20;;;0.20;;
51995;SDS011;38010;53.264;6.592;2023-07-09T07:43:14;0.20;;;0.20;;
51995;SDS011;38010;53.264;6.592;2023-07-09T07:45:45;0.30;;;0.30;;
51995;SDS011;38010;53.264;6.592;2023-07-09T07:48:11;0.28;;;0.28;;
51995;SDS011;38010;53.264;6.592;2023-07-09T07:50:37;0.20;;;0.20;;
51995;SDS011;38010;53.264;6.592;2023-07-09T07:53:03;0.30;;;0.30;;
51995;SDS011;38010;53.264;6.592;2023-07-09T07:55:29;0.50;;;0.20;;
51995;SDS011;38010;53.264;6.592;2023-07-09T07:57:56;0.20;;;0.20;;
51995;SDS011;38010;53.264;6.592;2023-07-09T08:00:28;0.20;;;0.20;;
51995;SDS011;38010;53.264;6.592;2023-07-09T08:02:54;0.28;;;0.28;;
51995;SDS011;38010;53.264;6.592;2023-07-09T08:05:19;0.30;;;0.30;;
51995;SDS011;38010;53.264;6.592;2023-07-09T08:07:45;0.30;;;0.30;;
51995;SDS011;38010;53.264;6.592;2023-07-09T08:10:11;0.20;;;0.20;;
51995;SDS011;38010;53.264;6.592;2023-07-09T08:12:38;0.30;;;0.20;;
51995;SDS011;38010;53.264;6.592;2023-07-09T08:15:04;0.20;;;0.20;;
51995;SDS011;38010;53.264;6.592;2023-07-09T08:17:31;0.20;;;0.20;;
51995;SDS011;38010;53.264;6.592;2023-07-09T08:19:57;0.40;;;0.40;;
51995;SDS011;38010;53.264;6.592;2023-07-09T08:22:23;0.20;;;0.20;;
51995;SDS011;38010;53.264;6.592;2023-07-09T08:24:49;0.30;;;0.30;;
51995;SDS011;38010;53.264;6.592;2023-07-09T08:27:16;0.65;;;0.30;;
51995;SDS011;38010;53.264;6.592;2023-07-09T08:29:42;0.30;;;0.30;;
51995;SDS011;38010;53.264;6.592;2023-07-09T08:32:09;0.57;;;0.30;;
51995;SDS011;38010;53.264;6.592;2023-07-09T08:34:37;0.20;;;0.20;;
51995;SDS011;38010;53.264;6.592;2023-07-09T08:37:05;0.20;;;0.20;;
51995;SDS011;38010;53.264;6.592;2023-07-09T08:39:31;0.22;;;0.22;;
51995;SDS011;38010;53.264;6.592;2023-07-09T08:41:59;0.30;;;0.30;;
51995;SDS011;38010;53.264;6.592;2023-07-09T08:50:13;0.30;;;0.30;;
51995;SDS011;38010;53.264;6.592;2023-07-09T08:52:43;0.20;;;0.20;;
51995;SDS011;38010;53.264;6.592;2023-07-09T08:55:14;0.30;;;0.30;;
51995;SDS011;38010;53.264;6.592;2023-07-09T08:57:55;0.30;;;0.30;;
51995;SDS011;38010;53.264;6.592;2023-07-09T09:00:37;0.20;;;0.20;;
51995;SDS011;38010;53.264;6.592;2023-07-09T09:06:32;0.20;;;0.20;;
51995;SDS011;38010;53.264;6.592;2023-07-09T09:14:43;0.63;;;0.20;;
51995;SDS011;38010;53.264;6.592;2023-07-09T09:17:17;0.20;;;0.20;;
51995;SDS011;38010;53.264;6.592;2023-07-09T09:22:33;0.20;;;0.20;;
51995;SDS011;38010;53.264;6.592;2023-07-09T09:25:11;0.20;;;0.20;;
51995;SDS011;38010;53.264;6.592;2023-07-09T09:27:59;0.32;;;0.32;;
51995;SDS011;38010;53.264;6.592;2023-07-09T09:30:25;0.30;;;0.30;;
51995;SDS011;38010;53.264;6.592;2023-07-09T09:32:59;0.82;;;0.40;;
51995;SDS011;38010;53.264;6.592;2023-07-09T09:35:28;0.40;;;0.40;;
51995;SDS011;38010;53.264;6.592;2023-07-09T09:38:00;0.30;;;0.30;;
51995;SDS011;38010;53.264;6.592;2023-07-09T09:40:28;0.30;;;0.30;;
51995;SDS011;38010;53.264;6.592;2023-07-09T09:42:58;0.40;;;0.40;;
51995;SDS011;38010;53.264;6.592;2023-07-09T09:45:27;1.25;;;0.40;;
51995;SDS011;38010;53.264;6.592;2023-07-09T09:48:01;0.43;;;0.43;;
51995;SDS011;38010;53.264;6.592;2023-07-09T09:50:41;0.32;;;0.30;;
51995;SDS011;38010;53.264;6.592;2023-07-09T09:53:07;0.30;;;0.30;;
51995;SDS011;38010;53.264;6.592;2023-07-09T09:55:35;0.45;;;0.40;;
51995;SDS011;38010;53.264;6.592;2023-07-09T09:58:11;0.30;;;0.30;;
51995;SDS011;38010;53.264;6.592;2023-07-09T10:00:39;0.40;;;0.40;;
51995;SDS011;38010;53.264;6.592;2023-07-09T10:03:06;0.30;;;0.30;;
51995;SDS011;38010;53.264;6.592;2023-07-09T10:05:32;0.40;;;0.40;;
51995;SDS011;38010;53.264;6.592;2023-07-09T10:11:12;0.40;;;0.40;;
51995;SDS011;38010;53.264;6.592;2023-07-09T10:13:47;0.38;;;0.30;;
51995;SDS011;38010;53.264;6.592;2023-07-09T10:16:17;0.30;;;0.30;;
51995;SDS011;38010;53.264;6.592;2023-07-09T10:24:34;0.30;;;0.30;;
51995;SDS011;38010;53.264;6.592;2023-07-09T10:30:28;0.55;;;0.30;;
51995;SDS011;38010;53.264;6.592;2023-07-09T10:36:16;0.63;;;0.40;;
51995;SDS011;38010;53.264;6.592;2023-07-09T10:38:54;0.30;;;0.30;;
51995;SDS011;38010;53.264;6.592;2023-07-09T10:41:40;0.23;;;0.23;;
51995;SDS011;38010;53.264;6.592;2023-07-09T10:44:15;0.30;;;0.30;;
51995;SDS011;38010;53.264;6.592;2023-07-09T10:47:02;0.32;;;0.32;;
51995;SDS011;38010;53.264;6.592;2023-07-09T10:49:33;0.30;;;0.30;;
51995;SDS011;38010;53.264;6.592;2023-07-09T10:57:29;0.40;;;0.40;;
51995;SDS011;38010;53.264;6.592;2023-07-09T11:00:03;0.52;;;0.35;;
51995;SDS011;38010;53.264;6.592;2023-07-09T11:02:33;0.30;;;0.30;;
51995;SDS011;38010;53.264;6.592;2023-07-09T11:05:03;0.30;;;0.30;;
51995;SDS011;38010;53.264;6.592;2023-07-09T11:07:37;0.30;;;0.30;;
51995;SDS011;38010;53.264;6.592;2023-07-09T11:10:15;0.30;;;0.30;;
51995;SDS011;38010;53.264;6.592;2023-07-09T11:12:48;0.30;;;0.30;;
51995;SDS011;38010;53.264;6.592;2023-07-09T11:15:41;0.30;;;0.30;;
51995;SDS011;38010;53.264;6.592;2023-07-09T11:18:13;0.30;;;0.30;;
51995;SDS011;38010;53.264;6.592;2023-07-09T11:20:54;0.40;;;0.40;;
51995;SDS011;38010;53.264;6.592;2023-07-09T11:23:24;0.90;;;0.45;;
51995;SDS011;38010;53.264;6.592;2023-07-09T11:26:02;0.30;;;0.30;;
51995;SDS011;38010;53.264;6.592;2023-07-09T11:28:37;1.00;;;0.30;;
51995;SDS011;38010;53.264;6.592;2023-07-09T11:31:31;0.55;;;0.40;;
51995;SDS011;38010;53.264;6.592;2023-07-09T11:42:25;0.80;;;0.40;;
51995;SDS011;38010;53.264;6.592;2023-07-09T11:47:54;0.32;;;0.32;;
51995;SDS011;38010;53.264;6.592;2023-07-09T11:50:44;0.30;;;0.30;;
51995;SDS011;38010;53.264;6.592;2023-07-09T11:53:18;0.93;;;0.30;;
51995;SDS011;38010;53.264;6.592;2023-07-09T11:55:54;0.63;;;0.30;;
51995;SDS011;38010;53.264;6.592;2023-07-09T11:58:20;0.40;;;0.40;;
51995;SDS011;38010;53.264;6.592;2023-07-09T12:00:46;0.30;;;0.30;;
51995;SDS011;38010;53.264;6.592;2023-07-09T12:03:19;0.40;;;0.40;;
51995;SDS011;38010;53.264;6.592;2023-07-09T12:05:50;0.30;;;0.30;;
51995;SDS011;38010;53.264;6.592;2023-07-09T12:08:35;0.30;;;0.30;;
51995;SDS011;38010;53.264;6.592;2023-07-09T12:11:04;0.30;;;0.30;;
51995;SDS011;38010;53.264;6.592;2023-07-09T12:13:38;0.30;;;0.30;;
51995;SDS011;38010;53.264;6.592;2023-07-09T12:16:26;0.40;;;0.40;;
51995;SDS011;38010;53.264;6.592;2023-07-09T12:18:54;0.20;;;0.20;;
51995;SDS011;38010;53.264;6.592;2023-07-09T12:21:22;0.20;;;0.20;;
51995;SDS011;38010;53.264;6.592;2023-07-09T12:23:49;0.20;;;0.20;;
51995;SDS011;38010;53.264;6.592;2023-07-09T12:26:17;0.28;;;0.28;;
51995;SDS011;38010;53.264;6.592;2023-07-09T12:28:51;0.30;;;0.30;;
51995;SDS011;38010;53.264;6.592;2023-07-09T12:31:27;0.30;;;0.30;;
51995;SDS011;38010;53.264;6.592;2023-07-09T12:33:55;0.30;;;0.30;;
51995;SDS011;38010;53.264;6.592;2023-07-09T12:36:23;0.30;;;0.30;;
51995;SDS011;38010;53.264;6.592;2023-07-09T12:38:51;0.20;;;0.20;;
51995;SDS011;38010;53.264;6.592;2023-07-09T12:43:53;0.30;;;0.30;;
51995;SDS011;38010;53.264;6.592;2023-07-09T12:46:20;0.40;;;0.28;;
51995;SDS011;38010;53.264;6.592;2023-07-09T12:48:48;0.55;;;0.30;;
51995;SDS011;38010;53.264;6.592;2023-07-09T12:51:20;0.30;;;0.30;;
51995;SDS011;38010;53.264;6.592;2023-07-09T12:53:49;0.20;;;0.20;;
51995;SDS011;38010;53.264;6.592;2023-07-09T12:56:38;0.22;;;0.22;;
51995;SDS011;38010;53.264;6.592;2023-07-09T12:59:08;0.30;;;0.30;;
51995;SDS011;38010;53.264;6.592;2023-07-09T13:05:06;0.20;;;0.20;;
51995;SDS011;38010;53.264;6.592;2023-07-09T13:07:45;0.20;;;0.20;;
51995;SDS011;38010;53.264;6.592;2023-07-09T13:10:16;0.20;;;0.20;;
51995;SDS011;38010;53.264;6.592;2023-07-09T13:13:02;0.20;;;0.20;;
51995;SDS011;38010;53.264;6.592;2023-07-09T13:15:37;0.28;;;0.20;;
51995;SDS011;38010;53.264;6.592;2023-07-09T13:18:07;0.30;;;0.30;;
51995;SDS011;38010;53.264;6.592;2023-07-09T13:20:37;0.10;;;0.10;;
51995;SDS011;38010;53.264;6.592;2023-07-09T13:23:09;0.20;;;0.20;;
51995;SDS011;38010;53.264;6.592;2023-07-09T13:25:56;0.20;;;0.20;;
51995;SDS011;38010;53.264;6.592;2023-07-09T13:28:30;0.20;;;0.20;;
51995;SDS011;38010;53.264;6.592;2023-07-09T13:30:58;0.20;;;0.20;;
51995;SDS011;38010;53.264;6.592;2023-07-09T13:34:04;0.20;;;0.20;;
51995;SDS011;38010;53.264;6.592;2023-07-09T13:36:33;0.20;;;0.20;;
51995;SDS011;38010;53.264;6.592;2023-07-09T13:38:58;0.20;;;0.20;;
51995;SDS011;38010;53.264;6.592;2023-07-09T13:41:25;0.20;;;0.20;;
51995;SDS011;38010;53.264;6.592;2023-07-09T13:43:51;0.20;;;0.20;;
51995;SDS011;38010;53.264;6.592;2023-07-09T13:46:18;0.20;;;0.20;;
51995;SDS011;38010;53.264;6.592;2023-07-09T13:48:44;0.20;;;0.20;;
51995;SDS011;38010;53.264;6.592;2023-07-09T13:53:58;0.20;;;0.20;;
51995;SDS011;38010;53.264;6.592;2023-07-09T13:56:28;0.20;;;0.20;;
51995;SDS011;38010;53.264;6.592;2023-07-09T13:58:54;0.20;;;0.20;;
51995;SDS011;38010;53.264;6.592;2023-07-09T14:01:21;0.20;;;0.20;;
51995;SDS011;38010;53.264;6.592;2023-07-09T14:03:49;0.20;;;0.20;;
51995;SDS011;38010;53.264;6.592;2023-07-09T14:06:26;0.20;;;0.20;;
51995;SDS011;38010;53.264;6.592;2023-07-09T14:08:52;0.20;;;0.20;;
51995;SDS011;38010;53.264;6.592;2023-07-09T14:11:18;0.20;;;0.20;;
51995;SDS011;38010;53.264;6.592;2023-07-09T14:13:45;0.20;;;0.20;;
51995;SDS011;38010;53.264;6.592;2023-07-09T14:16:12;0.20;;;0.20;;
51995;SDS011;38010;53.264;6.592;2023-07-09T14:18:40;0.20;;;0.20;;
51995;SDS011;38010;53.264;6.592;2023-07-09T14:21:10;0.20;;;0.20;;
51995;SDS011;38010;53.264;6.592;2023-07-09T14:23:38;0.20;;;0.20;;
51995;SDS011;38010;53.264;6.592;2023-07-09T14:26:04;0.20;;;0.20;;
51995;SDS011;38010;53.264;6.592;2023-07-09T14:28:30;0.10;;;0.10;;
51995;SDS011;38010;53.264;6.592;2023-07-09T14:30:57;0.20;;;0.20;;
51995;SDS011;38010;53.264;6.592;2023-07-09T14:33:23;0.10;;;0.10;;
51995;SDS011;38010;53.264;6.592;2023-07-09T14:35:49;0.20;;;0.20;;
51995;SDS011;38010;53.264;6.592;2023-07-09T14:38:17;0.20;;;0.20;;
51995;SDS011;38010;53.264;6.592;2023-07-09T14:40:50;0.30;;;0.20;;
51995;SDS011;38010;53.264;6.592;2023-07-09T14:43:18;0.13;;;0.13;;
51995;SDS011;38010;53.264;6.592;2023-07-09T14:45:44;0.70;;;0.20;;
51995;SDS011;38010;53.264;6.592;2023-07-09T14:48:17;0.20;;;0.20;;
51995;SDS011;38010;53.264;6.592;2023-07-09T14:50:44;0.20;;;0.20;;
51995;SDS011;38010;53.264;6.592;2023-07-09T14:53:13;0.20;;;0.20;;
51995;SDS011;38010;53.264;6.592;2023-07-09T14:55:46;0.20;;;0.20;;
51995;SDS011;38010;53.264;6.592;2023-07-09T14:58:17;0.20;;;0.20;;
51995;SDS011;38010;53.264;6.592;2023-07-09T15:00:44;0.22;;;0.22;;
51995;SDS011;38010;53.264;6.592;2023-07-09T15:03:20;0.20;;;0.20;;
51995;SDS011;38010;53.264;6.592;2023-07-09T15:05:48;0.20;;;0.20;;
51995;SDS011;38010;53.264;6.592;2023-07-09T15:08:19;0.30;;;0.30;;
51995;SDS011;38010;53.264;6.592;2023-07-09T15:10:48;0.20;;;0.20;;
51995;SDS011;38010;53.264;6.592;2023-07-09T15:13:20;0.20;;;0.20;;
51995;SDS011;38010;53.264;6.592;2023-07-09T15:16:11;0.20;;;0.20;;
51995;SDS011;38010;53.264;6.592;2023-07-09T15:18:38;0.20;;;0.20;;
51995;SDS011;38010;53.264;6.592;2023-07-09T15:21:04;0.20;;;0.20;;
51995;SDS011;38010;53.264;6.592;2023-07-09T15:23:31;0.20;;;0.20;;
51995;SDS011;38010;53.264;6.592;2023-07-09T15:26:08;0.20;;;0.20;;
51995;SDS011;38010;53.264;6.592;2023-07-09T15:28:39;0.22;;;0.22;;
51995;SDS011;38010;53.264;6.592;2023-07-09T15:31:04;0.20;;;0.20;;
51995;SDS011;38010;53.264;6.592;2023-07-09T15:33:33;0.20;;;0.20;;
51995;SDS011;38010;53.264;6.592;2023-07-09T15:35:59;0.20;;;0.20;;
51995;SDS011;38010;53.264;6.592;2023-07-09T15:38:26;0.20;;;0.20;;
51995;SDS011;38010;53.264;6.592;2023-07-09T15:40:54;0.25;;;0.25;;
51995;SDS011;38010;53.264;6.592;2023-07-09T15:43:20;0.20;;;0.20;;
51995;SDS011;38010;53.264;6.592;2023-07-09T15:45:47;0.20;;;0.20;;
51995;SDS011;38010;53.264;6.592;2023-07-09T15:48:30;0.20;;;0.20;;
51995;SDS011;38010;53.264;6.592;2023-07-09T15:50:58;0.20;;;0.20;;
51995;SDS011;38010;53.264;6.592;2023-07-09T15:53:27;0.20;;;0.20;;
51995;SDS011;38010;53.264;6.592;2023-07-09T15:55:56;0.20;;;0.20;;
51995;SDS011;38010;53.264;6.592;2023-07-09T15:58:26;0.20;;;0.20;;
51995;SDS011;38010;53.264;6.592;2023-07-09T16:00:56;0.20;;;0.20;;
51995;SDS011;38010;53.264;6.592;2023-07-09T16:03:22;0.77;;;0.25;;
51995;SDS011;38010;53.264;6.592;2023-07-09T16:05:48;0.22;;;0.22;;
51995;SDS011;38010;53.264;6.592;2023-07-09T16:08:14;0.20;;;0.20;;
51995;SDS011;38010;53.264;6.592;2023-07-09T16:10:40;1.15;;;0.20;;